Time;durP1;ratioP1;P1;durP2;ratioP2;P2;SDS_P1;SDS_P2;PMS_P1;PMS_P2;Temp;Humidity;BMP_temperature;BMP_pressure;BME280_temperature;BME280_humidity;BME280_pressure;Samples;Min_cycle;Max_cycle;Signal;HPM_P1;HPM_P2
2021/10/02 00:34:13;;;;;;;21.42;17.65;;;;;;;;;;5072977;28;20095;-66
2021/10/02 00:37:23;;;;;;;23.50;18.85;;;;;;;;;;5073170;28;20090;-65
2021/10/02 00:46:13;;;;;;;25.63;20.17;;;;;;;;;;5060946;28;20052;-66
2021/10/02 00:48:58;;;;;;;26.48;20.05;;;;;;;;;;5058304;28;20418;-66
2021/10/02 00:51:44;;;;;;;26.20;21.35;;;;;;;;;;5073116;28;20048;-67
2021/10/02 00:54:29;;;;;;;26.77;20.83;;;;;;;;;;5057724;28;20048;-66
2021/10/02 00:57:14;;;;;;;26.48;22.55;;;;;;;;;;5072924;28;20487;-67
2021/10/02 00:59:59;;;;;;;23.73;20.98;;;;;;;;;;5072864;28;20053;-66
2021/10/02 01:02:55;;;;;;;27.48;22.98;;;;;;;;;;5057726;28;20562;-66
2021/10/02 01:05:59;;;;;;;28.48;23.27;;;;;;;;;;5057428;28;20052;-67
2021/10/02 01:08:49;;;;;;;28.02;22.70;;;;;;;;;;5054630;28;20124;-66
2021/10/02 01:11:34;;;;;;;31.00;22.75;;;;;;;;;;5057857;28;20132;-66
2021/10/02 01:14:22;;;;;;;34.83;23.63;;;;;;;;;;5071870;28;20044;-66
2021/10/02 01:17:14;;;;;;;33.67;24.13;;;;;;;;;;5071969;28;20076;-66
2021/10/02 01:20:18;;;;;;;29.63;23.65;;;;;;;;;;5040428;28;20495;-66
2021/10/02 01:23:12;;;;;;;28.33;22.90;;;;;;;;;;5057600;28;20131;-66
2021/10/02 01:26:06;;;;;;;26.88;22.80;;;;;;;;;;5072358;28;20450;-66
2021/10/02 01:28:58;;;;;;;34.80;25.52;;;;;;;;;;5057138;28;20057;-66
2021/10/02 01:31:48;;;;;;;;;;;;;;;;;;5072699;28;20074;-67
2021/10/02 01:34:40;;;;;;;32.17;23.55;;;;;;;;;;5071789;28;19999;-67
2021/10/02 01:49:47;;;;;;;34.67;25.70;;;;;;;;;;5059519;28;20123;-66
2021/10/02 01:52:39;;;;;;;29.20;23.73;;;;;;;;;;5053861;28;20056;-66
2021/10/02 01:55:24;;;;;;;32.75;23.60;;;;;;;;;;5056866;28;20049;-66
2021/10/02 01:58:10;;;;;;;33.38;24.13;;;;;;;;;;5054101;28;20127;-67
2021/10/02 02:00:55;;;;;;;34.15;26.10;;;;;;;;;;5056945;28;20048;-67
2021/10/02 02:03:41;;;;;;;34.17;26.50;;;;;;;;;;5076899;28;20403;-66
2021/10/02 02:06:27;;;;;;;34.78;25.13;;;;;;;;;;5059805;28;20135;-66
2021/10/02 02:09:14;;;;;;;37.45;26.13;;;;;;;;;;5076967;28;20067;-67
2021/10/02 02:12:01;;;;;;;40.10;27.95;;;;;;;;;;5060283;28;20083;-67
2021/10/02 02:14:46;;;;;;;35.38;27.02;;;;;;;;;;5071737;28;20056;-67
2021/10/02 02:17:31;;;;;;;37.47;27.65;;;;;;;;;;5076955;28;20051;-67
2021/10/02 02:20:20;;;;;;;32.63;26.20;;;;;;;;;;5083907;28;20465;-67
2021/10/02 02:23:05;;;;;;;40.20;28.23;;;;;;;;;;5117628;22;20051;-63
2021/10/02 02:25:50;;;;;;;40.88;29.45;;;;;;;;;;5132919;28;20043;-63
2021/10/02 02:28:35;;;;;;;34.20;26.10;;;;;;;;;;5132554;27;20051;-62
2021/10/02 02:31:21;;;;;;;37.63;26.75;;;;;;;;;;5135657;27;20055;-63
2021/10/02 02:34:06;;;;;;;35.92;27.42;;;;;;;;;;5121293;27;20084;-63
2021/10/02 02:36:51;;;;;;;35.30;27.48;;;;;;;;;;5136860;27;20055;-63
2021/10/02 02:39:36;;;;;;;36.20;27.52;;;;;;;;;;5134726;27;20055;-63
2021/10/02 02:42:22;;;;;;;37.67;26.80;;;;;;;;;;5116299;28;20048;-62
2021/10/02 02:45:07;;;;;;;39.55;27.73;;;;;;;;;;5115814;28;20051;-63
2021/10/02 02:48:01;;;;;;;37.92;27.00;;;;;;;;;;5116012;28;20440;-63
2021/10/02 02:51:09;;;;;;;38.08;25.60;;;;;;;;;;5136747;27;20066;-62
2021/10/02 02:53:58;;;;;;;34.70;25.25;;;;;;;;;;5136264;27;20122;-62
2021/10/02 02:56:44;;;;;;;39.65;27.05;;;;;;;;;;5136618;27;20510;-63
2021/10/02 02:59:31;;;;;;;44.13;27.48;;;;;;;;;;5136441;27;20054;-63
2021/10/02 03:02:17;;;;;;;45.17;27.13;;;;;;;;;;5120977;27;20420;-63
2021/10/02 03:05:03;;;;;;;50.35;28.98;;;;;;;;;;5120798;27;20055;-62
2021/10/02 03:07:55;;;;;;;45.50;29.00;;;;;;;;;;5120851;27;20512;-63
2021/10/02 03:10:41;;;;;;;49.78;28.88;;;;;;;;;;5114875;28;20143;-62
2021/10/02 03:13:26;;;;;;;52.92;30.00;;;;;;;;;;5115247;28;20126;-62
2021/10/02 03:16:12;;;;;;;43.08;30.10;;;;;;;;;;5100323;28;20052;-63
2021/10/02 03:18:59;;;;;;;51.55;30.58;;;;;;;;;;5100252;28;20126;-62
2021/10/02 03:21:45;;;;;;;52.45;31.05;;;;;;;;;;5100070;28;20043;-63
2021/10/02 03:24:30;;;;;;;53.50;32.50;;;;;;;;;;5115038;28;20517;-62
2021/10/02 03:27:15;;;;;;;51.28;30.45;;;;;;;;;;5100035;28;20055;-63
2021/10/02 03:30:00;;;;;;;52.20;31.80;;;;;;;;;;5115276;28;20051;-62
2021/10/02 03:32:45;;;;;;;46.67;30.50;;;;;;;;;;5099835;28;20100;-62
2021/10/02 03:35:31;;;;;;;49.63;32.00;;;;;;;;;;5099692;28;20055;-62
2021/10/02 03:38:16;;;;;;;48.28;31.33;;;;;;;;;;5114806;28;20505;-63
2021/10/02 03:41:02;;;;;;;48.17;30.38;;;;;;;;;;5114476;28;20056;-62
2021/10/02 03:43:47;;;;;;;46.97;29.45;;;;;;;;;;5114304;28;20051;-63
2021/10/02 03:46:32;;;;;;;45.42;30.55;;;;;;;;;;5099576;28;20055;-63
2021/10/02 03:49:17;;;;;;;47.85;31.77;;;;;;;;;;5114998;28;20048;-62
2021/10/02 03:52:02;;;;;;;50.85;32.05;;;;;;;;;;5114797;28;20122;-62
2021/10/02 03:54:48;;;;;;;46.58;31.13;;;;;;;;;;5114282;28;20051;-63
2021/10/02 03:57:33;;;;;;;49.50;29.92;;;;;;;;;;5114824;28;20043;-63
2021/10/02 04:00:21;;;;;;;49.55;30.63;;;;;;;;;;5114662;28;20047;-62
2021/10/02 04:03:06;;;;;;;47.08;30.92;;;;;;;;;;5114349;28;20051;-62
2021/10/02 04:05:51;;;;;;;43.20;28.88;;;;;;;;;;5114598;28;20061;-63
2021/10/02 04:08:37;;;;;;;47.00;29.05;;;;;;;;;;5114572;28;20056;-63
2021/10/02 04:11:22;;;;;;;50.33;31.48;;;;;;;;;;5114275;28;20421;-62
2021/10/02 04:14:07;;;;;;;54.33;32.10;;;;;;;;;;5114124;28;20123;-62
2021/10/02 04:16:53;;;;;;;57.33;34.95;;;;;;;;;;5114428;28;20052;-62
2021/10/02 04:19:39;;;;;;;55.35;34.42;;;;;;;;;;5114174;28;20047;-63
2021/10/02 04:22:24;;;;;;;63.85;36.03;;;;;;;;;;5114132;28;20044;-63
2021/10/02 04:25:10;;;;;;;54.50;33.55;;;;;;;;;;5114026;28;20056;-63
2021/10/02 04:27:55;;;;;;;61.50;35.78;;;;;;;;;;5114020;28;20126;-63
2021/10/02 04:30:40;;;;;;;59.88;36.08;;;;;;;;;;5114245;28;20443;-63
2021/10/02 04:33:26;;;;;;;58.45;34.30;;;;;;;;;;5113780;28;20047;-62
2021/10/02 04:36:11;;;;;;;56.38;33.72;;;;;;;;;;5113941;28;20048;-63
2021/10/02 04:38:56;;;;;;;64.50;36.05;;;;;;;;;;5114078;28;20047;-63
2021/10/02 04:41:42;;;;;;;63.03;35.72;;;;;;;;;;5113864;28;20122;-63
2021/10/02 04:44:27;;;;;;;64.43;34.88;;;;;;;;;;5113416;28;20055;-63
2021/10/02 04:47:13;;;;;;;55.00;33.67;;;;;;;;;;5113948;28;20051;-63
2021/10/02 04:49:59;;;;;;;77.22;37.10;;;;;;;;;;5113697;28;20051;-66
2021/10/02 04:52:44;;;;;;;71.22;37.90;;;;;;;;;;5112980;28;20055;-63
2021/10/02 04:55:29;;;;;;;59.95;34.33;;;;;;;;;;5113393;28;20051;-64
2021/10/02 04:58:15;;;;;;;60.38;34.55;;;;;;;;;;5113573;28;20392;-63
2021/10/02 05:01:02;;;;;;;59.17;34.30;;;;;;;;;;5113375;28;20476;-63
2021/10/02 05:03:48;;;;;;;67.43;36.58;;;;;;;;;;5113397;28;20056;-63
2021/10/02 05:06:32;;;;;;;69.88;38.67;;;;;;;;;;5113536;28;20051;-63
2021/10/02 05:09:18;;;;;;;66.00;36.53;;;;;;;;;;5113395;28;20048;-63
2021/10/02 05:12:03;;;;;;;61.25;34.95;;;;;;;;;;5113386;28;20052;-62
2021/10/02 05:14:48;;;;;;;72.40;38.55;;;;;;;;;;5112855;28;20051;-62
2021/10/02 05:17:33;;;;;;;72.55;38.25;;;;;;;;;;5113199;28;20047;-63
2021/10/02 05:20:19;;;;;;;69.63;39.03;;;;;;;;;;5113063;28;20122;-63
2021/10/02 05:23:04;;;;;;;68.90;37.58;;;;;;;;;;5112883;28;20047;-62
2021/10/02 05:25:50;;;;;;;81.03;40.30;;;;;;;;;;5112815;28;20114;-62
2021/10/02 05:28:35;;;;;;;79.35;40.20;;;;;;;;;;5112768;28;20129;-62
2021/10/02 05:31:20;;;;;;;71.28;39.65;;;;;;;;;;5113006;28;20052;-62
2021/10/02 05:34:06;;;;;;;67.80;38.40;;;;;;;;;;5112575;28;20055;-62
2021/10/02 05:36:51;;;;;;;66.03;38.00;;;;;;;;;;5112765;28;20126;-62
2021/10/02 05:39:36;;;;;;;71.22;40.03;;;;;;;;;;5112922;28;20052;-63
2021/10/02 05:42:22;;;;;;;65.68;37.50;;;;;;;;;;5112747;28;20063;-63
2021/10/02 05:45:07;;;;;;;63.15;37.40;;;;;;;;;;5112156;28;20126;-63
2021/10/02 05:47:52;;;;;;;61.30;37.95;;;;;;;;;;5112770;28;20051;-62
2021/10/02 05:50:39;;;;;;;64.97;38.47;;;;;;;;;;5112688;28;20061;-63
2021/10/02 05:53:24;;;;;;;68.57;39.38;;;;;;;;;;5112227;28;20433;-63
2021/10/02 05:56:09;;;;;;;62.88;38.03;;;;;;;;;;5112682;28;20048;-64
2021/10/02 05:58:55;;;;;;;62.42;36.72;;;;;;;;;;5112606;28;20051;-63
2021/10/02 06:01:40;;;;;;;55.63;37.15;;;;;;;;;;5112363;28;20513;-63
2021/10/02 06:04:26;;;;;;;54.00;35.50;;;;;;;;;;5111886;28;20051;-64
2021/10/02 06:07:11;;;;;;;55.08;36.58;;;;;;;;;;5112576;28;20052;-63
2021/10/02 06:09:56;;;;;;;49.60;35.25;;;;;;;;;;5112158;28;20055;-63
2021/10/02 06:12:41;;;;;;;55.40;36.53;;;;;;;;;;5112481;28;20416;-63
2021/10/02 06:15:27;;;;;;;60.50;38.28;;;;;;;;;;5111854;28;20051;-62
2021/10/02 06:18:12;;;;;;;61.65;38.30;;;;;;;;;;5112326;28;20052;-64
2021/10/02 06:20:58;;;;;;;61.72;38.53;;;;;;;;;;5112592;28;20484;-63
2021/10/02 06:23:43;;;;;;;70.78;41.75;;;;;;;;;;5112122;28;20054;-63
2021/10/02 06:26:29;;;;;;;63.75;39.60;;;;;;;;;;5112107;28;20130;-64
2021/10/02 06:29:14;;;;;;;66.82;40.10;;;;;;;;;;5111777;28;20056;-64
2021/10/02 06:32:00;;;;;;;60.92;39.38;;;;;;;;;;5111597;28;20127;-64
2021/10/02 06:34:45;;;;;;;59.60;38.95;;;;;;;;;;5111854;28;20127;-62
2021/10/02 06:37:30;;;;;;;66.93;39.75;;;;;;;;;;5112329;28;20443;-64
2021/10/02 06:40:16;;;;;;;63.80;39.15;;;;;;;;;;5112333;28;20040;-64
2021/10/02 06:43:01;;;;;;;63.97;39.47;;;;;;;;;;5112153;28;20047;-64
2021/10/02 06:45:46;;;;;;;63.47;39.50;;;;;;;;;;5112064;28;20047;-64
2021/10/02 06:48:32;;;;;;;57.95;38.45;;;;;;;;;;5112205;28;20055;-63
2021/10/02 06:51:17;;;;;;;61.95;39.08;;;;;;;;;;5112111;28;20052;-63
2021/10/02 06:54:03;;;;;;;57.63;37.63;;;;;;;;;;5111849;28;20051;-64
2021/10/02 06:56:48;;;;;;;60.28;38.28;;;;;;;;;;5112141;28;20047;-64
2021/10/02 06:59:34;;;;;;;65.03;40.85;;;;;;;;;;5112111;28;20052;-64
2021/10/02 07:02:19;;;;;;;57.83;39.53;;;;;;;;;;5111633;28;20052;-64
2021/10/02 07:05:05;;;;;;;60.00;39.10;;;;;;;;;;5111768;28;20044;-63
2021/10/02 07:07:50;;;;;;;62.00;39.38;;;;;;;;;;5111813;28;20439;-63
2021/10/02 07:10:35;;;;;;;60.38;39.92;;;;;;;;;;5113376;28;20051;-61
2021/10/02 07:13:20;;;;;;;59.10;38.67;;;;;;;;;;5111684;28;20390;-64
2021/10/02 07:16:06;;;;;;;61.22;39.38;;;;;;;;;;5113777;28;20055;-63
2021/10/02 07:18:51;;;;;;;63.58;38.95;;;;;;;;;;5115316;28;20047;-64
2021/10/02 07:21:36;;;;;;;60.30;38.05;;;;;;;;;;5115419;28;20083;-64
2021/10/02 07:24:22;;;;;;;60.30;38.92;;;;;;;;;;5115139;28;20837;-64
2021/10/02 07:27:07;;;;;;;54.00;36.83;;;;;;;;;;5115292;28;20051;-64
2021/10/02 07:29:52;;;;;;;64.60;37.97;;;;;;;;;;5115342;28;20497;-63
2021/10/02 07:32:38;;;;;;;60.60;39.20;;;;;;;;;;5115301;28;20118;-64
2021/10/02 07:35:23;;;;;;;51.70;36.72;;;;;;;;;;5114810;28;20052;-64
2021/10/02 07:38:08;;;;;;;46.33;34.58;;;;;;;;;;5115289;28;20438;-62
2021/10/02 07:40:53;;;;;;;44.00;33.97;;;;;;;;;;5115186;28;20043;-64
2021/10/02 07:43:39;;;;;;;45.55;31.85;;;;;;;;;;5099523;28;20048;-63
2021/10/02 07:46:24;;;;;;;40.83;30.48;;;;;;;;;;5099914;28;20471;-63
2021/10/02 07:49:10;;;;;;;35.67;29.38;;;;;;;;;;5099844;28;20118;-64
2021/10/02 07:51:55;;;;;;;37.38;28.85;;;;;;;;;;5099476;28;20052;-64
2021/10/02 07:54:41;;;;;;;37.78;28.42;;;;;;;;;;5099320;28;20047;-63
2021/10/02 07:57:26;;;;;;;33.75;25.95;;;;;;;;;;5099791;28;20063;-64
2021/10/02 08:00:13;;;;;;;35.58;25.95;;;;;;;;;;5099499;28;20556;-64
2021/10/02 08:02:58;;;;;;;37.75;26.92;;;;;;;;;;5114602;28;20505;-64
2021/10/02 08:05:43;;;;;;;29.77;24.48;;;;;;;;;;5114453;28;20126;-63
2021/10/02 08:08:28;;;;;;;33.47;26.20;;;;;;;;;;5114599;28;20090;-64
2021/10/02 08:11:14;;;;;;;31.95;25.13;;;;;;;;;;5114656;28;20055;-64
2021/10/02 08:13:59;;;;;;;35.80;25.55;;;;;;;;;;5114336;28;20056;-64
2021/10/02 08:16:44;;;;;;;31.77;24.23;;;;;;;;;;5114428;28;20123;-64
2021/10/02 08:19:30;;;;;;;34.67;24.60;;;;;;;;;;5099044;28;20059;-64
2021/10/02 08:22:15;;;;;;;28.90;23.05;;;;;;;;;;5099418;28;20101;-63
2021/10/02 08:25:00;;;;;;;25.98;20.77;;;;;;;;;;5114124;28;20047;-63
2021/10/02 08:27:46;;;;;;;25.98;20.75;;;;;;;;;;5114108;28;20055;-63
2021/10/02 08:30:31;;;;;;;26.10;19.23;;;;;;;;;;5114328;28;20051;-63
2021/10/02 08:33:16;;;;;;;22.77;19.35;;;;;;;;;;5114119;28;20513;-63
2021/10/02 08:36:01;;;;;;;23.15;20.08;;;;;;;;;;5113776;28;20073;-63
2021/10/02 08:38:47;;;;;;;24.88;18.40;;;;;;;;;;5114079;28;20048;-63
2021/10/02 08:41:32;;;;;;;25.27;20.00;;;;;;;;;;5113969;28;20459;-63
2021/10/02 08:44:18;;;;;;;25.73;19.45;;;;;;;;;;5113515;28;20132;-63
2021/10/02 08:47:03;;;;;;;25.98;20.80;;;;;;;;;;5098556;28;20497;-63
2021/10/02 08:49:48;;;;;;;23.27;19.40;;;;;;;;;;5113881;28;20459;-63
2021/10/02 08:52:34;;;;;;;27.95;20.70;;;;;;;;;;5113635;28;20051;-63
2021/10/02 08:55:19;;;;;;;25.38;20.38;;;;;;;;;;5113523;28;20405;-63
2021/10/02 08:58:04;;;;;;;26.35;20.60;;;;;;;;;;5113638;28;20051;-63
2021/10/02 09:00:50;;;;;;;22.50;19.45;;;;;;;;;;5113540;28;20468;-63
2021/10/02 09:03:35;;;;;;;27.90;19.88;;;;;;;;;;5113377;28;20044;-63
2021/10/02 09:06:21;;;;;;;25.77;22.17;;;;;;;;;;5113434;28;20047;-64
2021/10/02 09:09:07;;;;;;;24.73;20.20;;;;;;;;;;5113290;28;20052;-63
2021/10/02 09:11:52;;;;;;;25.35;19.98;;;;;;;;;;5113158;28;20509;-65
2021/10/02 09:14:38;;;;;;;25.58;19.45;;;;;;;;;;5112967;28;20051;-64
2021/10/02 09:17:25;;;;;;;23.17;20.05;;;;;;;;;;5113062;28;20047;-63
2021/10/02 09:20:10;;;;;;;24.48;19.52;;;;;;;;;;5113315;28;20048;-63
2021/10/02 09:23:06;;;;;;;26.75;20.83;;;;;;;;;;5112851;28;20044;-63
2021/10/02 09:25:51;;;;;;;25.60;19.70;;;;;;;;;;5112621;28;20052;-64
2021/10/02 09:28:46;;;;;;;28.73;20.80;;;;;;;;;;5113162;28;20056;-63
2021/10/02 09:31:32;;;;;;;21.50;18.00;;;;;;;;;;5112903;28;20180;-63
2021/10/02 09:34:23;;;;;;;27.42;18.20;;;;;;;;;;5112908;28;20044;-64
2021/10/02 09:37:15;;;;;;;23.30;18.48;;;;;;;;;;5113003;28;20056;-63
2021/10/02 09:40:02;;;;;;;23.48;18.90;;;;;;;;;;5112701;28;20047;-63
2021/10/02 09:42:49;;;;;;;23.15;17.30;;;;;;;;;;5112585;28;20122;-64
2021/10/02 09:45:41;;;;;;;26.23;19.55;;;;;;;;;;5112339;28;20055;-63
2021/10/02 09:48:27;;;;;;;31.10;20.45;;;;;;;;;;5112661;28;20118;-64
2021/10/02 09:51:13;;;;;;;23.98;18.50;;;;;;;;;;5112627;28;20055;-64
2021/10/02 09:53:58;;;;;;;24.38;17.88;;;;;;;;;;5112262;28;20501;-64
2021/10/02 09:57:04;;;;;;;25.13;18.42;;;;;;;;;;5112514;28;20082;-63
2021/10/02 09:59:50;;;;;;;24.20;17.45;;;;;;;;;;5112647;28;20115;-64
2021/10/02 10:02:39;;;;;;;21.85;16.80;;;;;;;;;;5112373;28;20525;-64
2021/10/02 10:05:28;;;;;;;27.40;17.83;;;;;;;;;;5112105;28;20126;-64
2021/10/02 10:08:22;;;;;;;18.92;12.80;;;;;;;;;;5112525;28;20180;-64
2021/10/02 10:11:07;;;;;;;15.70;12.40;;;;;;;;;;5112388;28;20047;-64
2021/10/02 10:13:58;;;;;;;19.00;13.38;;;;;;;;;;5112144;28;20055;-64
2021/10/02 10:16:44;;;;;;;20.45;13.38;;;;;;;;;;5112555;28;20048;-64
2021/10/02 10:19:30;;;;;;;17.70;12.57;;;;;;;;;;5112291;28;20047;-63
2021/10/02 10:22:19;;;;;;;18.90;11.95;;;;;;;;;;5112038;28;20047;-64
2021/10/02 10:25:09;;;;;;;13.43;11.07;;;;;;;;;;5112180;28;20051;-64
2021/10/02 10:27:54;;;;;;;12.57;10.43;;;;;;;;;;5112215;28;20521;-64
2021/10/02 10:30:44;;;;;;;12.93;9.75;;;;;;;;;;5096939;28;20044;-64
2021/10/02 10:33:32;;;;;;;15.23;10.48;;;;;;;;;;5112085;28;20047;-63
2021/10/02 10:36:17;;;;;;;11.18;7.88;;;;;;;;;;5112078;28;20052;-63
2021/10/02 10:39:02;;;;;;;8.68;7.22;;;;;;;;;;5112138;28;20055;-63
2021/10/02 10:41:47;;;;;;;11.93;8.13;;;;;;;;;;5112250;28;20052;-64
2021/10/02 10:44:33;;;;;;;11.98;7.07;;;;;;;;;;5111901;28;20122;-64
2021/10/02 10:47:18;;;;;;;9.80;6.30;;;;;;;;;;5096851;28;20093;-64
2021/10/02 10:50:03;;;;;;;11.30;5.25;;;;;;;;;;5097434;28;20425;-64
2021/10/02 10:52:48;;;;;;;6.90;4.03;;;;;;;;;;5116131;28;20056;-64
2021/10/02 10:55:33;;;;;;;9.13;4.35;;;;;;;;;;5115675;28;20043;-64
2021/10/02 10:58:22;;;;;;;9.35;3.95;;;;;;;;;;5100906;28;20044;-64
2021/10/02 11:01:11;;;;;;;8.45;4.03;;;;;;;;;;5116018;28;20052;-64
2021/10/02 11:03:57;;;;;;;5.20;2.92;;;;;;;;;;5115414;28;20047;-64
2021/10/02 11:06:49;;;;;;;6.90;3.53;;;;;;;;;;5100557;28;20083;-64
2021/10/02 11:09:35;;;;;;;8.85;4.18;;;;;;;;;;5115845;28;20051;-64
2021/10/02 11:12:21;;;;;;;9.40;4.75;;;;;;;;;;5115847;28;20059;-63
2021/10/02 11:15:06;;;;;;;6.70;4.25;;;;;;;;;;5115487;28;20118;-64
2021/10/02 11:17:51;;;;;;;9.25;4.70;;;;;;;;;;5115571;28;20494;-64
2021/10/02 11:20:37;;;;;;;6.93;3.08;;;;;;;;;;5115496;28;20051;-64
2021/10/02 11:23:35;;;;;;;6.70;3.38;;;;;;;;;;5115339;28;20508;-64
2021/10/02 11:26:24;;;;;;;7.30;3.88;;;;;;;;;;5115458;28;20051;-64
2021/10/02 11:29:16;;;;;;;7.82;3.78;;;;;;;;;;5115597;28;20056;-64
2021/10/02 11:32:19;;;;;;;9.18;4.65;;;;;;;;;;5115318;28;20055;-64
2021/10/02 11:35:12;;;;;;;7.90;4.55;;;;;;;;;;5118066;27;20084;-64
2021/10/02 11:38:07;;;;;;;8.15;3.85;;;;;;;;;;5106821;27;20154;-64
2021/10/02 11:40:52;;;;;;;7.30;4.13;;;;;;;;;;5124486;27;20115;-64
2021/10/02 11:43:40;;;;;;;5.68;3.72;;;;;;;;;;5125209;27;20110;-64
2021/10/02 11:46:25;;;;;;;8.18;3.95;;;;;;;;;;5125964;27;20408;-64
2021/10/02 11:49:18;;;;;;;9.13;4.25;;;;;;;;;;5124239;27;20043;-64
2021/10/02 11:52:03;;;;;;;;;;;;;;;;;;5126366;27;20059;-65
2021/10/02 11:54:48;;;;;;;7.65;3.80;;;;;;;;;;5126159;27;20013;-64
2021/10/02 11:57:33;;;;;;;6.97;3.50;;;;;;;;;;5124189;27;20051;-64
2021/10/02 12:00:18;;;;;;;7.75;3.58;;;;;;;;;;5118276;27;20051;-64
2021/10/02 12:03:04;;;;;;;9.30;3.45;;;;;;;;;;5135006;27;20047;-64
2021/10/02 12:05:49;;;;;;;6.45;3.42;;;;;;;;;;5135119;27;20130;-64
2021/10/02 12:08:34;;;;;;;8.55;4.05;;;;;;;;;;5135337;27;20104;-65
2021/10/02 12:11:20;;;;;;;6.53;4.32;;;;;;;;;;5135179;27;20051;-64
2021/10/02 12:14:05;;;;;;;10.25;4.68;;;;;;;;;;5134833;27;20078;-65
2021/10/02 12:16:51;;;;;;;11.60;4.32;;;;;;;;;;5134772;27;20420;-64
2021/10/02 12:19:38;;;;;;;7.18;3.95;;;;;;;;;;5135037;27;20051;-64
2021/10/02 12:22:27;;;;;;;6.18;3.63;;;;;;;;;;5134733;27;20454;-65
2021/10/02 12:25:12;;;;;;;5.40;3.25;;;;;;;;;;5134456;27;20059;-64
2021/10/02 12:27:57;;;;;;;6.10;3.63;;;;;;;;;;5134702;27;20051;-64
2021/10/02 12:30:51;;;;;;;6.75;3.60;;;;;;;;;;5134570;27;20585;-64
2021/10/02 12:33:36;;;;;;;6.35;4.18;;;;;;;;;;5134364;27;20050;-64
2021/10/02 12:36:40;;;;;;;6.65;3.75;;;;;;;;;;5134615;27;20051;-64
2021/10/02 12:39:26;;;;;;;10.23;3.75;;;;;;;;;;5134555;27;20067;-63
2021/10/02 12:42:12;;;;;;;9.15;4.07;;;;;;;;;;5134571;27;20047;-64
2021/10/02 12:44:58;;;;;;;6.82;4.15;;;;;;;;;;5134237;27;20051;-64
2021/10/02 12:47:46;;;;;;;8.05;3.88;;;;;;;;;;5134384;27;20420;-64
2021/10/02 12:50:34;;;;;;;9.20;4.50;;;;;;;;;;5134483;27;20088;-64
2021/10/02 12:53:20;;;;;;;8.60;4.28;;;;;;;;;;5134401;27;20047;-64
2021/10/02 12:56:15;;;;;;;10.23;4.25;;;;;;;;;;5118769;27;20047;-64
2021/10/02 12:59:15;;;;;;;8.27;4.75;;;;;;;;;;5133980;27;20060;-64
2021/10/02 13:02:00;;;;;;;7.70;4.78;;;;;;;;;;5134028;27;20047;-64
2021/10/02 13:04:45;;;;;;;7.65;3.72;;;;;;;;;;5118458;27;20114;-64
2021/10/02 13:07:35;;;;;;;9.75;4.90;;;;;;;;;;5133974;27;20043;-64
2021/10/02 13:10:20;;;;;;;7.50;4.38;;;;;;;;;;5134035;27;20104;-64
2021/10/02 13:13:08;;;;;;;11.23;4.20;;;;;;;;;;5132952;27;20046;-64
2021/10/02 13:16:02;;;;;;;7.28;4.47;;;;;;;;;;5133819;27;20047;-64
2021/10/02 13:18:48;;;;;;;10.00;4.35;;;;;;;;;;5133728;27;20051;-64
2021/10/02 13:21:33;;;;;;;13.77;4.85;;;;;;;;;;5133790;27;20047;-64
2021/10/02 13:24:21;;;;;;;8.25;4.47;;;;;;;;;;5133669;27;20048;-64
2021/10/02 13:27:10;;;;;;;9.80;4.60;;;;;;;;;;5133746;27;20047;-64
2021/10/02 13:30:02;;;;;;;8.88;4.65;;;;;;;;;;5133833;27;20051;-64
2021/10/02 13:32:54;;;;;;;7.35;4.50;;;;;;;;;;5133761;27;20055;-64
2021/10/02 13:35:40;;;;;;;6.68;4.05;;;;;;;;;;5133389;27;20047;-64
2021/10/02 13:38:33;;;;;;;6.70;3.90;;;;;;;;;;5133559;27;20047;-64
2021/10/02 13:41:18;;;;;;;9.10;4.05;;;;;;;;;;5133249;27;20044;-64
2021/10/02 13:44:04;;;;;;;12.00;3.88;;;;;;;;;;5132604;27;20099;-63
2021/10/02 13:46:49;;;;;;;6.78;3.17;;;;;;;;;;5128860;27;20448;-64
2021/10/02 13:49:34;;;;;;;5.07;2.60;;;;;;;;;;5106718;27;20546;-64
2021/10/02 13:52:19;;;;;;;6.35;2.85;;;;;;;;;;5122211;27;20051;-64
2021/10/02 13:55:04;;;;;;;4.68;2.53;;;;;;;;;;5123215;27;20050;-64
2021/10/02 13:57:49;;;;;;;6.65;2.70;;;;;;;;;;5123081;27;20079;-63
2021/10/02 14:00:35;;;;;;;3.22;2.25;;;;;;;;;;5123358;27;20039;-64
2021/10/02 14:03:20;;;;;;;4.68;2.30;;;;;;;;;;5121798;27;20405;-64
2021/10/02 14:06:05;;;;;;;3.40;1.58;;;;;;;;;;5122472;28;20047;-63
2021/10/02 14:08:51;;;;;;;4.70;1.90;;;;;;;;;;5120587;27;20047;-63
2021/10/02 14:11:36;;;;;;;4.50;1.60;;;;;;;;;;5123424;27;20055;-63
2021/10/02 14:14:21;;;;;;;5.07;1.70;;;;;;;;;;5121512;28;20448;-64
2021/10/02 14:17:07;;;;;;;5.88;1.52;;;;;;;;;;5122428;28;20043;-63
2021/10/02 14:19:52;;;;;;;2.38;1.40;;;;;;;;;;5107855;28;20051;-64
2021/10/02 14:22:37;;;;;;;5.28;1.55;;;;;;;;;;5117912;28;20055;-64
2021/10/02 14:25:22;;;;;;;3.42;1.40;;;;;;;;;;5121353;27;20421;-64
2021/10/02 14:28:08;;;;;;;3.17;1.65;;;;;;;;;;5125640;27;20059;-64
2021/10/02 14:30:53;;;;;;;2.53;1.38;;;;;;;;;;5127548;27;20051;-63
2021/10/02 14:33:38;;;;;;;3.47;1.48;;;;;;;;;;5121956;27;20118;-63
2021/10/02 14:36:24;;;;;;;2.35;1.10;;;;;;;;;;5126256;27;20051;-63
2021/10/02 14:39:09;;;;;;;1.65;0.95;;;;;;;;;;5132480;27;20121;-63
2021/10/02 14:41:55;;;;;;;3.75;1.20;;;;;;;;;;5161627;22;20048;-65
2021/10/02 14:44:40;;;;;;;2.40;1.20;;;;;;;;;;5103974;28;20477;-65
2021/10/02 14:47:26;;;;;;;3.58;1.20;;;;;;;;;;5099112;28;20052;-65
2021/10/02 14:50:12;;;;;;;2.15;1.13;;;;;;;;;;5109723;28;20448;-65
2021/10/02 14:52:57;;;;;;;4.15;1.30;;;;;;;;;;5103010;28;20520;-65
2021/10/02 14:55:44;;;;;;;1.85;1.20;;;;;;;;;;5102788;28;20047;-65
2021/10/02 14:58:30;;;;;;;2.97;1.08;;;;;;;;;;5103013;28;20043;-66
2021/10/02 15:01:16;;;;;;;1.92;1.20;;;;;;;;;;5103437;28;20702;-65
2021/10/02 15:04:02;;;;;;;2.10;1.10;;;;;;;;;;5107370;28;20048;-65
2021/10/02 15:06:48;;;;;;;3.00;0.90;;;;;;;;;;5086547;28;20090;-64
2021/10/02 15:09:33;;;;;;;2.30;1.23;;;;;;;;;;5094303;28;20094;-65
2021/10/02 15:12:19;;;;;;;2.30;1.35;;;;;;;;;;5094537;28;20055;-65
2021/10/02 15:15:04;;;;;;;3.97;1.58;;;;;;;;;;5078829;28;20056;-64
2021/10/02 15:17:50;;;;;;;4.45;1.35;;;;;;;;;;5094386;28;20083;-65
2021/10/02 15:20:35;;;;;;;3.63;2.03;;;;;;;;;;5094867;28;20502;-65
2021/10/02 15:23:20;;;;;;;3.38;1.70;;;;;;;;;;5079374;28;20052;-65
2021/10/02 15:26:06;;;;;;;2.88;2.30;;;;;;;;;;5079306;28;20052;-65
2021/10/02 15:28:53;;;;;;;4.15;2.40;;;;;;;;;;5094684;28;20048;-65
2021/10/02 15:31:38;;;;;;;3.00;2.38;;;;;;;;;;5077747;28;20052;-66
2021/10/02 15:34:24;;;;;;;3.65;2.72;;;;;;;;;;5093777;28;20056;-65
2021/10/02 15:37:09;;;;;;;4.18;3.10;;;;;;;;;;5092965;28;20083;-65
2021/10/02 15:39:55;;;;;;;5.53;3.35;;;;;;;;;;5079823;28;20486;-66
2021/10/02 15:42:42;;;;;;;4.45;3.80;;;;;;;;;;5093898;28;20051;-65
2021/10/02 15:45:27;;;;;;;4.95;4.22;;;;;;;;;;5083607;28;20766;-66
2021/10/02 15:48:13;;;;;;;5.03;4.50;;;;;;;;;;5084986;28;20123;-65
2021/10/02 15:51:01;;;;;;;5.65;5.15;;;;;;;;;;5093538;28;20494;-65
2021/10/02 15:53:46;;;;;;;6.10;5.50;;;;;;;;;;5078116;28;20048;-67
2021/10/02 15:56:31;;;;;;;6.18;5.60;;;;;;;;;;5078112;28;20044;-67
2021/10/02 15:59:17;;;;;;;6.95;5.70;;;;;;;;;;5078606;28;20127;-67
2021/10/02 16:02:15;;;;;;;5.95;5.35;;;;;;;;;;5078696;28;20533;-66
2021/10/02 16:05:08;;;;;;;6.70;6.00;;;;;;;;;;5078217;28;20048;-66
2021/10/02 16:07:53;;;;;;;8.23;6.20;;;;;;;;;;5064061;28;20055;-66
2021/10/02 16:10:38;;;;;;;6.97;6.30;;;;;;;;;;5093984;28;20468;-66
2021/10/02 16:13:24;;;;;;;7.03;6.20;;;;;;;;;;5078408;28;20052;-66
2021/10/02 16:16:10;;;;;;;7.95;7.25;;;;;;;;;;5077997;28;20052;-66
2021/10/02 16:18:55;;;;;;;8.00;7.30;;;;;;;;;;5093782;28;20052;-66
2021/10/02 16:21:42;;;;;;;8.05;7.13;;;;;;;;;;5077268;28;20043;-66
2021/10/02 16:24:27;;;;;;;8.48;7.60;;;;;;;;;;5078018;28;20060;-66
2021/10/02 16:27:15;;;;;;;8.88;7.80;;;;;;;;;;5093754;28;20056;-66
2021/10/02 16:30:00;;;;;;;8.65;7.53;;;;;;;;;;5079435;28;20466;-66
2021/10/02 16:32:45;;;;;;;8.60;7.70;;;;;;;;;;5077243;28;20068;-66
2021/10/02 16:35:30;;;;;;;7.38;6.68;;;;;;;;;;5092254;28;20056;-66
2021/10/02 16:38:15;;;;;;;8.00;7.30;;;;;;;;;;5093278;28;20055;-66
2021/10/02 16:41:01;;;;;;;7.45;6.57;;;;;;;;;;5092688;28;20048;-66
2021/10/02 16:43:46;;;;;;;9.30;6.70;;;;;;;;;;5077413;28;20078;-66
2021/10/02 16:46:32;;;;;;;8.38;7.13;;;;;;;;;;5095347;28;20055;-66
2021/10/02 16:49:17;;;;;;;8.02;6.88;;;;;;;;;;5101351;28;20127;-66
2021/10/02 16:52:03;;;;;;;8.32;6.80;;;;;;;;;;5102882;28;20056;-66
2021/10/02 16:54:48;;;;;;;6.97;6.00;;;;;;;;;;5097468;28;20667;-66
2021/10/02 16:57:34;;;;;;;6.75;6.10;;;;;;;;;;5101372;28;20047;-64
2021/10/02 17:00:20;;;;;;;7.65;6.97;;;;;;;;;;5092666;28;20055;-65
2021/10/02 17:03:05;;;;;;;6.95;6.30;;;;;;;;;;5092199;28;20459;-64
2021/10/02 17:05:51;;;;;;;6.93;6.13;;;;;;;;;;5077186;28;20052;-65
2021/10/02 17:08:36;;;;;;;7.90;5.72;;;;;;;;;;5092743;28;20056;-64
2021/10/02 17:11:22;;;;;;;5.43;4.80;;;;;;;;;;5092290;28;20044;-64
2021/10/02 17:14:07;;;;;;;5.88;5.03;;;;;;;;;;5102273;28;20052;-65